createdAt,value
2019-04-04T00:01:07.434Z,3.60
2019-04-04T00:03:37.115Z,3.47
2019-04-04T00:06:06.701Z,4.00
2019-04-04T00:08:36.301Z,3.60
2019-04-04T00:11:06.094Z,3.05
2019-04-04T00:13:36.301Z,3.50
2019-04-04T00:16:05.903Z,3.58
2019-04-04T00:18:35.494Z,3.17
2019-04-04T00:21:05.381Z,3.10
2019-04-04T00:23:37.789Z,3.27
2019-04-04T00:26:06.655Z,3.10
2019-04-04T00:28:36.234Z,3.55
2019-04-04T00:31:05.902Z,3.58
2019-04-04T00:33:35.516Z,3.50
2019-04-04T00:36:05.229Z,3.30
2019-04-04T00:38:37.711Z,3.08
2019-04-04T00:41:06.199Z,3.10
2019-04-04T00:43:35.816Z,3.00
2019-04-04T00:46:05.422Z,3.10
2019-04-04T00:48:34.869Z,3.12
2019-04-04T00:51:07.724Z,3.33
2019-04-04T00:53:35.560Z,3.37
2019-04-04T00:56:04.990Z,2.90
2019-04-04T00:58:34.461Z,3.20
2019-04-04T01:01:04.790Z,2.95
2019-04-04T01:03:34.348Z,3.08
2019-04-04T01:06:03.849Z,3.30
2019-04-04T01:08:33.265Z,2.90
2019-04-04T01:11:02.739Z,3.00
2019-04-04T01:13:32.164Z,2.90
2019-04-04T01:16:02.901Z,3.33
2019-04-04T01:18:32.728Z,2.98
2019-04-04T01:21:02.186Z,2.87
2019-04-04T01:23:31.683Z,3.08
2019-04-04T01:26:01.337Z,2.92
2019-04-04T01:28:32.297Z,2.87
2019-04-04T01:31:01.820Z,2.60
2019-04-04T01:33:31.237Z,2.83
2019-04-04T01:36:00.743Z,3.27
2019-04-04T01:38:30.190Z,2.92
2019-04-04T01:40:59.638Z,3.00
2019-04-04T01:43:29.089Z,3.10
2019-04-04T01:45:58.611Z,2.60
2019-04-04T01:48:28.031Z,2.65
2019-04-04T01:50:57.475Z,2.72
2019-04-04T01:53:29.843Z,2.72
2019-04-04T01:55:58.084Z,2.50
2019-04-04T01:58:27.562Z,2.92
2019-04-04T02:00:56.993Z,2.85
2019-04-04T02:03:26.512Z,2.90
2019-04-04T02:05:56.211Z,2.70
2019-04-04T02:08:27.169Z,2.98
2019-04-04T02:10:56.647Z,2.65
2019-04-04T02:13:26.142Z,3.20
2019-04-04T02:15:55.566Z,2.95
2019-04-04T02:18:24.997Z,2.87
2019-04-04T02:20:57.593Z,2.62
2019-04-04T02:23:25.646Z,2.70
2019-04-04T02:25:55.079Z,2.92
2019-04-04T02:28:24.912Z,2.65
2019-04-04T02:30:54.524Z,2.83
2019-04-04T02:33:23.978Z,2.62
2019-04-04T02:35:53.417Z,2.55
2019-04-04T02:38:27.108Z,2.95
2019-04-04T02:40:54.011Z,2.87
2019-04-04T02:43:27.389Z,2.70
2019-04-04T02:45:54.606Z,2.80
2019-04-04T02:48:24.763Z,2.20
2019-04-04T02:50:54.266Z,2.47
2019-04-04T02:53:23.712Z,2.35
2019-04-04T02:55:53.120Z,2.60
2019-04-04T02:58:22.596Z,2.40
2019-04-04T03:00:52.022Z,2.58
2019-04-04T03:03:21.461Z,2.70
2019-04-04T03:05:52.103Z,2.50
2019-04-04T03:08:20.054Z,2.83
2019-04-04T03:10:49.586Z,2.58
2019-04-04T03:13:19.097Z,2.30
2019-04-04T03:15:48.540Z,2.02
2019-04-04T03:18:18.019Z,2.37
2019-04-04T03:20:50.417Z,2.27
2019-04-04T03:23:18.651Z,2.33
2019-04-04T03:25:48.275Z,2.40
2019-04-04T03:28:17.701Z,2.33
2019-04-04T03:30:57.000Z,3.00
2019-04-04T03:33:18.351Z,2.47
2019-04-04T03:35:47.783Z,2.45
2019-04-04T03:38:17.215Z,2.35
2019-04-04T03:40:46.750Z,2.30
2019-04-04T03:43:16.945Z,2.55
2019-04-04T03:45:46.409Z,2.12
2019-04-04T03:48:17.534Z,2.20
2019-04-04T03:50:46.997Z,2.45
2019-04-04T03:53:17.719Z,2.30
2019-04-04T03:55:47.166Z,2.50
2019-04-04T03:58:16.678Z,2.55
2019-04-04T04:00:46.170Z,2.42
2019-04-04T04:03:15.618Z,2.45
2019-04-04T04:05:45.080Z,2.17
2019-04-04T04:08:14.622Z,2.62
2019-04-04T04:10:44.047Z,2.20
2019-04-04T04:13:16.064Z,2.45
2019-04-04T04:15:44.821Z,2.67
2019-04-04T04:18:14.256Z,2.22
2019-04-04T04:20:43.841Z,2.50
2019-04-04T04:23:13.287Z,2.60
2019-04-04T04:25:45.577Z,2.17
2019-04-04T04:28:20.120Z,2.60
2019-04-04T04:30:49.689Z,2.45
2019-04-04T04:33:19.178Z,2.30
2019-04-04T04:35:48.679Z,2.50
2019-04-04T04:38:18.160Z,2.58
2019-04-04T04:40:48.173Z,2.35
2019-04-04T04:43:17.734Z,2.70
2019-04-04T04:45:47.190Z,2.45
2019-04-04T04:48:16.635Z,2.52
2019-04-04T04:50:46.232Z,2.40
2019-04-04T04:53:18.457Z,2.40
2019-04-04T04:55:46.894Z,2.50
2019-04-04T04:58:16.366Z,2.47
2019-04-04T05:00:47.282Z,2.17
2019-04-04T05:03:18.101Z,2.72
2019-04-04T05:05:47.594Z,2.10
2019-04-04T05:08:17.163Z,2.17
2019-04-04T05:10:46.617Z,2.72
2019-04-04T05:13:16.046Z,2.50
2019-04-04T05:15:45.713Z,2.42
2019-04-04T05:18:16.316Z,2.90
2019-04-04T05:20:46.488Z,3.08
2019-04-04T05:23:16.309Z,3.08
2019-04-04T05:25:53.756Z,2.80
2019-04-04T05:28:16.969Z,2.83
2019-04-04T05:30:47.309Z,2.60
2019-04-04T05:33:17.300Z,2.75
2019-04-04T05:35:46.748Z,3.00
2019-04-04T05:38:16.225Z,2.60
2019-04-04T05:40:45.658Z,2.62
2019-04-04T05:43:15.239Z,2.90
2019-04-04T05:45:45.343Z,2.87
2019-04-04T05:48:15.369Z,2.80
2019-04-04T05:50:44.850Z,2.50
2019-04-04T05:53:14.376Z,2.60
2019-04-04T05:55:43.812Z,2.90
2019-04-04T05:58:13.496Z,2.83
2019-04-04T06:00:45.755Z,2.80
2019-04-04T06:03:15.935Z,2.60
2019-04-04T06:05:45.490Z,2.55
2019-04-04T06:08:15.255Z,2.62
2019-04-04T06:10:44.676Z,2.62
2019-04-04T06:13:14.193Z,2.62
2019-04-04T06:15:43.726Z,3.17
2019-04-04T06:18:13.188Z,2.70
2019-04-04T06:20:42.621Z,3.17
2019-04-04T06:23:12.546Z,3.17
2019-04-04T06:25:42.475Z,2.67
2019-04-04T06:28:12.674Z,2.92
2019-04-04T06:30:43.784Z,2.83
2019-04-04T06:33:13.557Z,2.62
2019-04-04T06:35:47.091Z,2.90
2019-04-04T06:38:14.657Z,2.92
2019-04-04T06:40:44.432Z,2.83
2019-04-04T06:43:13.855Z,2.87
2019-04-04T06:45:46.337Z,2.92
2019-04-04T06:48:14.439Z,2.80
2019-04-04T06:50:44.118Z,2.47
2019-04-04T06:53:13.574Z,2.95
2019-04-04T06:55:43.125Z,3.10
2019-04-04T06:58:12.603Z,3.25
2019-04-04T07:00:42.354Z,3.25
2019-04-04T07:03:11.741Z,3.27
2019-04-04T07:05:41.183Z,3.08
2019-04-04T07:08:10.629Z,3.17
2019-04-04T07:10:40.437Z,3.17
2019-04-04T07:15:46.812Z,3.12
2019-04-04T07:18:12.908Z,3.25
2019-04-04T07:20:42.424Z,3.33
2019-04-04T07:23:14.299Z,3.15
2019-04-04T07:25:43.099Z,3.58
2019-04-04T07:28:12.556Z,3.62
2019-04-04T07:30:42.002Z,3.92
2019-04-04T07:33:12.682Z,3.85
2019-04-04T07:35:42.227Z,3.67
2019-04-04T07:38:11.664Z,3.83
2019-04-04T07:40:41.089Z,3.83
2019-04-04T07:43:10.746Z,3.45
2019-04-04T07:45:40.718Z,3.80
2019-04-04T07:48:12.250Z,3.60
2019-04-04T07:50:41.988Z,5.85
2019-04-04T07:53:12.049Z,7.72
2019-04-04T07:55:42.854Z,6.53
2019-04-04T07:58:12.341Z,5.28
2019-04-04T08:00:41.815Z,6.72
2019-04-04T08:03:11.261Z,4.80
2019-04-04T08:05:40.695Z,4.67
2019-04-04T08:08:10.214Z,5.08
2019-04-04T08:10:39.669Z,4.97
2019-04-04T08:13:09.533Z,5.15
2019-04-04T08:15:38.981Z,6.08
2019-04-04T08:18:08.448Z,4.75
2019-04-04T08:20:37.885Z,4.87
2019-04-04T08:23:07.340Z,4.90
2019-04-04T08:25:36.789Z,5.17
2019-04-04T08:28:06.218Z,5.08
2019-04-04T08:30:35.680Z,4.70
2019-04-04T08:33:05.130Z,4.50
2019-04-04T08:35:34.611Z,5.08
2019-04-04T08:38:04.086Z,5.12
2019-04-04T08:40:33.570Z,4.50
2019-04-04T08:43:02.998Z,5.35
2019-04-04T08:45:32.426Z,4.50
2019-04-04T08:48:01.962Z,4.80
2019-04-04T08:50:31.483Z,4.90
2019-04-04T08:53:00.904Z,4.40
2019-04-04T08:55:30.687Z,4.15
2019-04-04T08:58:00.098Z,4.70
2019-04-04T09:00:29.655Z,4.40
2019-04-04T09:02:59.130Z,5.10
2019-04-04T09:05:30.479Z,4.75
2019-04-04T09:07:59.975Z,4.53
2019-04-04T09:10:29.416Z,4.67
2019-04-04T09:12:58.939Z,4.62
2019-04-04T09:15:28.391Z,4.85
2019-04-04T09:17:57.839Z,4.80
2019-04-04T09:20:27.381Z,5.03
2019-04-04T09:22:56.982Z,4.85
2019-04-04T09:25:26.453Z,4.90
2019-04-04T09:27:55.918Z,4.47
2019-04-04T09:30:25.367Z,4.78
2019-04-04T09:32:54.860Z,4.58
2019-04-04T09:35:24.316Z,4.50
2019-04-04T09:37:53.814Z,4.97
2019-04-04T09:40:23.243Z,4.83
2019-04-04T09:42:52.693Z,5.30
2019-04-04T09:45:22.153Z,6.30
2019-04-04T09:47:51.647Z,5.28
2019-04-04T09:50:21.077Z,5.20
2019-04-04T09:52:50.508Z,4.67
2019-04-04T09:55:19.945Z,8.43
2019-04-04T09:57:49.397Z,7.33
2019-04-04T10:00:19.825Z,6.62
2019-04-04T10:02:49.260Z,6.25
2019-04-04T10:05:18.866Z,5.72
2019-04-04T10:07:48.302Z,6.58
2019-04-04T10:10:17.793Z,6.42
2019-04-04T10:12:47.237Z,6.87
2019-04-04T10:15:16.686Z,6.20
2019-04-04T10:17:49.174Z,6.62
2019-04-04T10:20:17.360Z,6.05
2019-04-04T10:22:46.841Z,6.35
2019-04-04T10:25:16.299Z,6.87
2019-04-04T10:27:45.714Z,6.47
2019-04-04T10:30:15.238Z,6.87
2019-04-04T10:32:44.675Z,6.10
2019-04-04T10:35:14.112Z,5.72
2019-04-04T10:37:43.575Z,6.92
2019-04-04T10:40:13.074Z,6.00
2019-04-04T10:42:42.510Z,7.83
2019-04-04T10:45:11.955Z,6.87
2019-04-04T10:47:41.695Z,6.17
2019-04-04T10:50:11.464Z,6.35
2019-04-04T10:52:40.886Z,6.65
2019-04-04T10:55:10.428Z,6.37
2019-04-04T10:57:40.168Z,6.62
2019-04-04T11:00:09.692Z,6.50
2019-04-04T11:02:39.159Z,6.15
2019-04-04T11:05:08.670Z,7.03
2019-04-04T11:07:38.103Z,6.55
2019-04-04T11:10:07.607Z,6.67
2019-04-04T11:12:37.072Z,6.45
2019-04-04T11:15:06.598Z,6.05
2019-04-04T11:17:36.061Z,5.85
2019-04-04T11:20:05.852Z,6.72
2019-04-04T11:22:35.261Z,6.35
2019-04-04T11:25:04.727Z,5.65
2019-04-04T11:27:34.373Z,5.97
2019-04-04T11:30:03.994Z,5.95
2019-04-04T11:32:33.493Z,5.75
2019-04-04T11:35:02.963Z,6.12
2019-04-04T11:37:32.388Z,6.10
2019-04-04T11:40:01.859Z,6.08
2019-04-04T11:42:31.318Z,6.80
2019-04-04T11:45:00.959Z,5.42
2019-04-04T11:47:30.496Z,5.58
2019-04-04T11:50:00.190Z,6.08
2019-04-04T11:52:29.637Z,5.75
2019-04-04T11:55:05.089Z,6.03
2019-04-04T11:57:34.629Z,5.62
2019-04-04T12:00:04.340Z,5.90
2019-04-04T12:02:33.762Z,5.33
2019-04-04T12:05:03.223Z,6.35
2019-04-04T12:07:32.665Z,5.97
2019-04-04T12:10:07.763Z,5.28
2019-04-04T12:12:33.604Z,5.90
2019-04-04T12:15:03.243Z,5.28
2019-04-04T12:17:32.655Z,5.12
2019-04-04T12:20:02.100Z,5.53
2019-04-04T12:22:31.553Z,5.67
2019-04-04T12:25:01.006Z,5.83
2019-04-04T12:27:30.510Z,9.80
2019-04-04T12:30:00.354Z,9.55
2019-04-04T12:32:29.841Z,8.33
2019-04-04T12:34:59.326Z,7.62
2019-04-04T12:37:28.789Z,6.95
2019-04-04T12:39:58.265Z,7.47
2019-04-04T12:42:27.686Z,7.55
2019-04-04T12:44:57.133Z,8.83
2019-04-04T12:47:26.662Z,10.18
2019-04-04T12:49:56.138Z,11.45
2019-04-04T12:52:25.657Z,13.80
2019-04-04T12:54:55.048Z,15.25
2019-04-04T12:57:24.537Z,13.85
2019-04-04T12:59:54.068Z,12.98
2019-04-04T13:02:23.529Z,12.73
2019-04-04T13:04:52.999Z,16.50
2019-04-04T13:07:22.442Z,17.07
2019-04-04T13:09:51.989Z,17.30
2019-04-04T13:12:21.477Z,18.37
2019-04-04T13:14:50.955Z,19.40
2019-04-04T13:17:20.401Z,19.23
2019-04-04T13:19:49.862Z,18.57
2019-04-04T13:22:19.304Z,20.43
2019-04-04T13:24:48.750Z,18.50
2019-04-04T13:27:18.337Z,26.00
2019-04-04T13:29:47.790Z,30.60
2019-04-04T13:32:17.372Z,34.67
2019-04-04T13:34:58.688Z,33.83
2019-04-04T13:37:18.022Z,32.00
2019-04-04T13:39:47.463Z,26.85
2019-04-04T13:42:17.001Z,27.93
2019-04-04T13:44:46.868Z,26.48
2019-04-04T13:47:16.620Z,27.42
2019-04-04T13:49:46.094Z,26.40
2019-04-04T13:52:15.536Z,26.57
2019-04-04T13:54:45.060Z,26.37
2019-04-04T13:57:14.650Z,26.73
2019-04-04T13:59:44.145Z,26.35
2019-04-04T14:02:13.617Z,26.12
2019-04-04T14:04:43.140Z,25.40
2019-04-04T14:07:12.584Z,26.70
2019-04-04T14:09:44.315Z,24.57
2019-04-04T14:12:14.309Z,23.90
2019-04-04T14:14:44.212Z,23.95
2019-04-04T14:17:13.998Z,24.40
2019-04-04T14:19:43.662Z,25.00
2019-04-04T14:22:13.112Z,24.00
2019-04-04T14:24:42.594Z,23.32
2019-04-04T14:27:12.023Z,24.18
2019-04-04T14:29:41.495Z,23.30
2019-04-04T14:32:11.062Z,26.05
2019-04-04T14:34:40.514Z,25.65
2019-04-04T14:37:09.980Z,25.30
2019-04-04T14:39:39.490Z,23.20
2019-04-04T14:42:08.933Z,23.55
2019-04-04T14:44:38.446Z,24.02
2019-04-04T14:47:07.950Z,24.95
2019-04-04T14:49:37.507Z,23.80
2019-04-04T14:52:06.995Z,24.07
2019-04-04T14:54:38.298Z,24.07
2019-04-04T14:57:07.642Z,23.35
2019-04-04T14:59:37.082Z,23.65
2019-04-04T15:02:06.579Z,23.45
2019-04-04T15:04:36.044Z,22.67
2019-04-04T15:07:05.810Z,23.55
2019-04-04T15:09:35.260Z,22.75
2019-04-04T15:12:04.816Z,22.75
2019-04-04T15:14:34.300Z,23.70
2019-04-04T15:17:04.153Z,23.98
2019-04-04T15:19:34.043Z,22.13
2019-04-04T15:22:03.669Z,21.70
2019-04-04T15:24:33.183Z,22.40
2019-04-04T15:27:02.629Z,22.48
2019-04-04T15:29:32.122Z,22.85
2019-04-04T15:32:01.565Z,21.68
2019-04-04T15:34:31.039Z,23.00
2019-04-04T15:37:00.476Z,22.40
2019-04-04T15:39:29.989Z,22.40
2019-04-04T15:41:59.586Z,22.80
2019-04-04T15:44:29.048Z,22.22
2019-04-04T15:46:58.566Z,22.25
2019-04-04T15:49:28.173Z,21.20
2019-04-04T15:51:59.606Z,20.45
2019-04-04T15:54:28.876Z,21.05
2019-04-04T15:56:58.340Z,20.82
2019-04-04T15:59:27.866Z,20.30
2019-04-04T16:01:57.434Z,20.37
2019-04-04T16:04:27.212Z,20.40
2019-04-04T16:06:56.669Z,21.02
2019-04-04T16:09:26.176Z,28.92
2019-04-04T16:11:55.604Z,30.62
2019-04-04T16:14:25.173Z,31.12
2019-04-04T16:16:54.622Z,27.42
2019-04-04T16:19:24.188Z,25.90
2019-04-04T16:21:53.656Z,25.82
2019-04-04T16:24:23.107Z,25.15
2019-04-04T16:26:52.632Z,25.82
2019-04-04T16:29:22.179Z,23.02
2019-04-04T16:31:51.679Z,24.07
2019-04-04T16:34:21.098Z,25.62
2019-04-04T16:36:50.594Z,25.05
2019-04-04T16:39:20.045Z,24.10
2019-04-04T16:42:01.255Z,23.80
2019-04-04T16:44:20.721Z,22.93
2019-04-04T16:46:50.155Z,23.52
2019-04-04T16:49:19.603Z,23.65
2019-04-04T16:51:49.055Z,23.50
2019-04-04T16:54:18.523Z,22.65
2019-04-04T16:56:47.983Z,21.77
2019-04-04T16:59:17.416Z,21.40
2019-04-04T17:01:46.869Z,20.97
2019-04-04T17:04:16.405Z,21.25
2019-04-04T17:06:45.839Z,21.75
2019-04-04T17:09:15.339Z,22.07
2019-04-04T17:11:44.782Z,20.80
2019-04-04T17:14:14.309Z,19.90
2019-04-04T17:16:43.787Z,20.15
2019-04-04T17:19:13.241Z,19.70
2019-04-04T17:21:42.683Z,19.73
2019-04-04T17:24:12.152Z,19.62
2019-04-04T17:26:41.616Z,18.87
2019-04-04T17:29:11.086Z,19.90
2019-04-04T17:31:41.014Z,19.17
2019-04-04T17:34:10.492Z,17.95
2019-04-04T17:36:39.944Z,19.30
2019-04-04T17:39:09.957Z,19.05
2019-04-04T17:41:39.710Z,18.37
2019-04-04T17:44:09.386Z,18.48
2019-04-04T17:46:39.060Z,18.20
2019-04-04T17:49:09.001Z,17.23
2019-04-04T17:51:38.843Z,17.75
2019-04-04T17:54:08.279Z,17.80
2019-04-04T17:56:37.736Z,18.15
2019-04-04T17:59:07.171Z,17.87
2019-04-04T18:01:36.634Z,17.48
2019-04-04T18:04:06.072Z,17.10
2019-04-04T18:06:35.520Z,17.55
2019-04-04T18:09:06.932Z,16.82
2019-04-04T18:11:36.400Z,17.12
2019-04-04T18:14:05.923Z,16.97
2019-04-04T18:16:35.374Z,18.27
2019-04-04T18:19:04.835Z,16.85
2019-04-04T18:21:34.292Z,17.20
2019-04-04T18:24:03.750Z,17.05
2019-04-04T18:26:33.218Z,16.52
2019-04-04T18:29:02.748Z,16.48
2019-04-04T18:31:32.183Z,17.10
2019-04-04T18:34:02.050Z,16.02
2019-04-04T18:36:31.574Z,14.35
2019-04-04T18:39:01.038Z,16.82
2019-04-04T18:41:30.491Z,18.17
2019-04-04T18:43:59.925Z,16.62
2019-04-04T18:46:29.360Z,18.80
2019-04-04T18:48:58.824Z,17.07
2019-04-04T18:51:26.482Z,16.50
2019-04-04T18:53:56.005Z,17.77
2019-04-04T18:56:25.425Z,16.70
2019-04-04T18:58:54.937Z,16.73
2019-04-04T19:01:24.395Z,15.68
2019-04-04T19:03:53.854Z,17.12
2019-04-04T19:06:23.353Z,16.32
2019-04-04T19:08:52.795Z,16.23
2019-04-04T19:11:22.303Z,16.27
2019-04-04T19:13:51.779Z,16.65
2019-04-04T19:16:21.391Z,17.67
2019-04-04T19:18:51.033Z,16.25
2019-04-04T19:21:20.542Z,17.27
2019-04-04T19:23:50.099Z,16.75
2019-04-04T19:26:19.560Z,17.77
2019-04-04T19:28:49.058Z,18.37
2019-04-04T19:31:18.549Z,19.85
2019-04-04T19:33:48.012Z,20.00
2019-04-04T19:36:17.667Z,18.37
2019-04-04T19:38:47.185Z,17.32
2019-04-04T19:41:16.657Z,20.80
2019-04-04T19:43:46.129Z,21.33
2019-04-04T19:46:15.592Z,20.12
2019-04-04T19:48:48.131Z,20.37
2019-04-04T19:51:16.370Z,19.75
2019-04-04T19:53:45.862Z,19.87
2019-04-04T19:56:15.325Z,19.67
2019-04-04T19:58:44.827Z,19.15
2019-04-04T20:01:14.346Z,19.52
2019-04-04T20:03:43.844Z,18.25
2019-04-04T20:06:13.297Z,18.17
2019-04-04T20:08:42.782Z,18.45
2019-04-04T20:11:12.722Z,17.92
2019-04-04T20:13:42.179Z,18.92
2019-04-04T20:16:12.446Z,17.45
2019-04-04T20:18:42.574Z,16.35
2019-04-04T20:21:12.043Z,17.17
2019-04-04T20:23:41.576Z,17.00
2019-04-04T20:26:11.027Z,17.17
2019-04-04T20:28:40.490Z,16.42
2019-04-04T20:31:10.389Z,16.48
2019-04-04T20:33:39.875Z,17.45
2019-04-04T20:36:09.684Z,16.82
2019-04-04T20:38:39.326Z,16.65
2019-04-04T20:41:08.802Z,16.20
2019-04-04T20:43:43.531Z,16.15
2019-04-04T20:46:09.567Z,15.58
2019-04-04T20:48:39.078Z,16.05
2019-04-04T20:51:08.533Z,15.88
2019-04-04T20:53:37.987Z,15.15
2019-04-04T20:56:07.484Z,14.87
2019-04-04T20:58:36.985Z,14.70
2019-04-04T21:01:06.447Z,14.83
2019-04-04T21:03:35.882Z,14.40
2019-04-04T21:06:05.328Z,13.22
2019-04-04T21:08:34.801Z,12.43
2019-04-04T21:11:04.234Z,13.38
2019-04-04T21:13:33.670Z,12.28
2019-04-04T21:16:03.124Z,12.30
2019-04-04T21:18:32.569Z,12.58
2019-04-04T21:21:01.983Z,12.78
2019-04-04T21:23:31.469Z,12.68
2019-04-04T21:26:00.920Z,12.53
2019-04-04T21:28:30.354Z,12.25
2019-04-04T21:30:59.803Z,12.58
2019-04-04T21:33:29.237Z,12.25
2019-04-04T21:35:58.811Z,12.55
2019-04-04T21:38:28.249Z,12.23
2019-04-04T21:40:57.669Z,12.28
2019-04-04T21:43:27.114Z,12.07
2019-04-04T21:45:56.549Z,11.00
2019-04-04T21:48:26.008Z,11.95
2019-04-04T21:50:55.419Z,11.65
2019-04-04T21:53:24.882Z,10.78
2019-04-04T21:55:54.302Z,11.10
2019-04-04T21:58:24.211Z,10.88
2019-04-04T22:00:53.910Z,10.58
2019-04-04T22:03:23.348Z,10.98
2019-04-04T22:05:52.778Z,10.60
2019-04-04T22:08:22.226Z,10.72
2019-04-04T22:10:51.759Z,9.95
2019-04-04T22:13:21.193Z,10.60
2019-04-04T22:15:50.666Z,10.25
2019-04-04T22:18:20.063Z,10.65
2019-04-04T22:20:49.511Z,10.88
2019-04-04T22:23:18.969Z,10.40
2019-04-04T22:25:48.383Z,10.13
2019-04-04T22:28:17.804Z,10.93
2019-04-04T22:30:47.243Z,9.68
2019-04-04T22:33:16.687Z,10.08
2019-04-04T22:35:46.126Z,10.70
2019-04-04T22:38:15.588Z,10.63
2019-04-04T22:40:45.023Z,10.13
2019-04-04T22:43:14.457Z,9.53
2019-04-04T22:45:44.187Z,9.58
2019-04-04T22:48:13.875Z,9.35
2019-04-04T22:50:43.696Z,9.85
2019-04-04T22:53:13.195Z,9.68
2019-04-04T22:55:42.658Z,9.80
2019-04-04T22:58:12.141Z,9.05
2019-04-04T23:00:41.579Z,8.95
2019-04-04T23:03:11.422Z,8.98
2019-04-04T23:05:40.847Z,8.88
2019-04-04T23:08:10.324Z,8.68
2019-04-04T23:10:39.767Z,8.95
2019-04-04T23:13:09.213Z,9.38
2019-04-04T23:15:38.875Z,9.33
2019-04-04T23:18:08.307Z,8.95
2019-04-04T23:20:37.739Z,8.78
2019-04-04T23:23:07.260Z,8.55
2019-04-04T23:25:36.682Z,8.43
2019-04-04T23:28:06.168Z,8.78
2019-04-04T23:30:35.606Z,8.40
2019-04-04T23:33:05.030Z,8.48
2019-04-04T23:35:34.466Z,8.35
2019-04-04T23:38:03.881Z,8.65
2019-04-04T23:40:33.306Z,8.15
2019-04-04T23:43:02.802Z,8.15
2019-04-04T23:45:30.522Z,8.33
2019-04-04T23:47:59.946Z,8.13
2019-04-04T23:50:29.355Z,7.62
2019-04-04T23:52:58.804Z,8.30
2019-04-04T23:55:28.212Z,7.35
2019-04-04T23:57:57.660Z,7.90
